createdAt,value
2018-12-30T11:09:34.583Z,3.67
2018-12-30T11:17:12.006Z,3.57
2018-12-30T11:22:14.755Z,3.63
2018-12-30T11:27:17.404Z,3.63
2018-12-30T11:32:20.491Z,3.43
2018-12-30T11:37:23.522Z,4.00
2018-12-30T11:42:26.206Z,2.90
2018-12-30T11:47:28.805Z,4.10
2018-12-30T11:52:31.699Z,2.40
2018-12-30T11:57:34.671Z,3.83
2018-12-30T12:02:37.533Z,1.93
2018-12-30T12:07:40.221Z,3.20
2018-12-30T12:12:48.826Z,3.30
2018-12-30T12:17:47.005Z,3.40
2018-12-30T12:22:49.967Z,3.77
2018-12-30T12:27:52.998Z,4.27
2018-12-30T12:32:55.956Z,3.00
2018-12-30T12:37:58.847Z,2.70
2018-12-30T12:43:01.135Z,3.70
2018-12-30T12:48:04.147Z,2.60
2018-12-30T12:53:06.919Z,2.43
2018-12-30T12:58:09.831Z,3.30
2018-12-30T13:03:12.334Z,2.90
2018-12-30T13:08:14.412Z,3.00
2018-12-30T13:13:17.407Z,3.53
2018-12-30T13:18:20.189Z,3.10
2018-12-30T13:23:22.927Z,2.90
2018-12-30T13:28:25.416Z,3.30
2018-12-30T13:33:28.483Z,3.40
2018-12-30T13:38:31.432Z,3.33
2018-12-30T13:43:33.813Z,3.53
2018-12-30T13:48:36.624Z,2.67
2018-12-30T13:53:39.619Z,2.80
2018-12-30T13:58:42.330Z,2.10
2018-12-30T14:03:45.134Z,3.47
2018-12-30T14:08:47.857Z,3.00
2018-12-30T14:13:50.622Z,2.63
2018-12-30T14:18:52.719Z,3.03
2018-12-30T14:23:55.863Z,3.10
2018-12-30T14:28:58.716Z,2.93
2018-12-30T14:34:01.828Z,4.30
2018-12-30T14:39:06.510Z,3.60
2018-12-30T14:44:08.957Z,3.20
2018-12-30T14:49:11.657Z,3.10
2018-12-30T14:54:14.828Z,3.30
2018-12-30T14:59:17.927Z,3.47
2018-12-30T15:04:22.376Z,4.43
2018-12-30T15:09:25.328Z,3.33
2018-12-30T15:14:27.700Z,3.20
2018-12-30T15:19:30.823Z,2.47
2018-12-30T15:24:33.987Z,3.80
2018-12-30T15:29:36.935Z,6.17
2018-12-30T15:34:39.713Z,6.10
2018-12-30T15:39:42.746Z,7.10
2018-12-30T15:44:44.901Z,3.80
2018-12-30T15:49:47.916Z,4.00
2018-12-30T15:55:22.808Z,3.20
2018-12-30T16:00:52.969Z,3.07
2018-12-30T16:06:07.069Z,4.13
2018-12-30T16:11:10.107Z,3.57
2018-12-30T16:16:13.075Z,3.30
2018-12-30T16:21:15.952Z,3.70
2018-12-30T16:26:19.070Z,3.90
2018-12-30T16:31:28.084Z,4.20
2018-12-30T16:36:26.326Z,3.57
2018-12-30T16:41:29.034Z,4.57
2018-12-30T16:46:32.031Z,3.80
2018-12-30T16:51:34.733Z,4.17
2018-12-30T16:56:37.680Z,5.23
2018-12-30T17:01:40.407Z,6.40
2018-12-30T17:06:43.177Z,6.03
2018-12-30T17:11:45.833Z,5.37
2018-12-30T17:16:48.849Z,5.43
2018-12-30T17:21:51.150Z,5.43
2018-12-30T17:26:54.448Z,6.47
2018-12-30T17:31:57.518Z,5.70
2018-12-30T17:37:00.231Z,8.37
2018-12-30T17:42:02.907Z,9.60
2018-12-30T17:47:05.873Z,12.70
2018-12-30T17:52:08.860Z,31.47
2018-12-30T17:57:11.747Z,13.20
2018-12-30T18:02:16.359Z,7.60
2018-12-30T18:07:20.963Z,5.67
2018-12-30T18:12:24.935Z,5.40
2018-12-30T18:17:29.000Z,5.13
2018-12-30T18:22:34.056Z,6.10
2018-12-30T18:27:38.370Z,4.90
2018-12-30T18:32:41.199Z,6.77
2018-12-30T18:37:43.390Z,5.47
2018-12-30T18:42:45.791Z,5.50
2018-12-30T18:47:48.430Z,5.43
2018-12-30T18:52:51.527Z,5.80
2018-12-30T18:57:54.693Z,9.00
2018-12-30T19:02:57.415Z,6.40
2018-12-30T19:07:59.808Z,5.10
2018-12-30T19:13:02.489Z,7.37
2018-12-30T19:18:07.211Z,7.37
2018-12-30T19:23:09.720Z,6.00
2018-12-30T19:28:13.853Z,6.83
2018-12-30T19:33:16.763Z,8.10
2018-12-30T19:38:19.179Z,9.03
2018-12-30T19:43:22.271Z,11.80
2018-12-30T19:48:24.759Z,12.63
2018-12-30T19:53:27.956Z,11.43
2018-12-30T19:58:31.179Z,13.23
2018-12-30T20:03:34.586Z,11.10
2018-12-30T20:08:37.292Z,10.03
2018-12-30T20:13:40.184Z,11.17
2018-12-30T20:18:42.885Z,8.80
2018-12-30T20:23:46.421Z,8.80
2018-12-30T20:28:50.194Z,10.97
2018-12-30T20:33:53.467Z,11.60
2018-12-30T20:38:56.502Z,10.00
2018-12-30T20:43:59.947Z,11.03
2018-12-30T20:49:03.246Z,10.20
2018-12-30T20:54:06.480Z,9.17
2018-12-30T20:59:09.864Z,8.07
2018-12-30T21:04:13.043Z,7.80
2018-12-30T21:09:17.228Z,11.83
2018-12-30T21:14:20.734Z,10.30
2018-12-30T21:19:23.463Z,10.13
2018-12-30T21:24:27.927Z,11.10
2018-12-30T21:29:30.686Z,9.57
2018-12-30T21:34:33.183Z,10.20
2018-12-30T21:39:35.992Z,10.30
2018-12-30T21:44:38.530Z,12.70
2018-12-30T21:49:41.893Z,11.13
2018-12-30T21:54:44.540Z,12.20
2018-12-30T21:59:47.190Z,11.27
2018-12-30T22:04:50.170Z,8.57
2018-12-30T22:09:52.866Z,6.63
2018-12-30T22:14:55.699Z,8.87
2018-12-30T22:19:57.467Z,9.23
2018-12-30T22:25:00.577Z,11.60
2018-12-30T22:30:04.470Z,13.37
2018-12-30T22:35:07.624Z,9.53
2018-12-30T22:40:10.579Z,9.20
2018-12-30T22:45:13.621Z,8.87
2018-12-30T22:50:16.094Z,7.90
2018-12-30T22:55:19.127Z,7.17
2018-12-30T23:00:38.919Z,8.63
2018-12-30T23:05:41.872Z,12.43
2018-12-30T23:10:46.261Z,9.97
2018-12-30T23:15:49.141Z,8.90
2018-12-30T23:20:52.147Z,9.03
2018-12-30T23:25:55.167Z,7.93
2018-12-30T23:30:57.563Z,7.87
2018-12-30T23:36:00.045Z,8.00
2018-12-30T23:41:02.435Z,7.40
2018-12-30T23:46:05.225Z,8.27
2018-12-30T23:51:08.046Z,8.47
2018-12-30T23:56:11.147Z,8.27
